sensor_id;sensor_type;location;lat;lon;timestamp;P1;durP1;ratioP1;P2;durP2;ratioP2
53674;SDS011;39574;50.534;8.500;2023-11-19T00:00:10;9.9;;;5.3;;
53674;SDS011;39574;50.534;8.500;2023-11-19T00:05:09;8.1;;;4.2;;
53674;SDS011;39574;50.534;8.500;2023-11-19T00:15:07;8.3;;;4.3;;
53674;SDS011;39574;50.534;8.500;2023-11-19T00:20:06;7.1;;;3.6;;
53674;SDS011;39574;50.534;8.500;2023-11-19T00:25:05;9.3;;;4.8;;
53674;SDS011;39574;50.534;8.500;2023-11-19T00:30:04;10.0;;;5.7;;
53674;SDS011;39574;50.534;8.500;2023-11-19T00:35:03;10.6;;;6.1;;
53674;SDS011;39574;50.534;8.500;2023-11-19T00:40:02;10.9;;;6.2;;
53674;SDS011;39574;50.534;8.500;2023-11-19T00:45:01;11.3;;;6.5;;
53674;SDS011;39574;50.534;8.500;2023-11-19T00:50:00;9.6;;;5.3;;
53674;SDS011;39574;50.534;8.500;2023-11-19T01:05:01;7.7;;;4.2;;
53674;SDS011;39574;50.534;8.500;2023-11-19T01:09:56;6.5;;;3.5;;
53674;SDS011;39574;50.534;8.500;2023-11-19T01:14:55;6.9;;;3.5;;
53674;SDS011;39574;50.534;8.500;2023-11-19T01:19:54;9.0;;;4.7;;
53674;SDS011;39574;50.534;8.500;2023-11-19T01:24:53;10.4;;;5.5;;
53674;SDS011;39574;50.534;8.500;2023-11-19T01:29:51;10.3;;;5.5;;
53674;SDS011;39574;50.534;8.500;2023-11-19T01:34:51;10.8;;;5.5;;
53674;SDS011;39574;50.534;8.500;2023-11-19T01:39:50;9.3;;;4.6;;
53674;SDS011;39574;50.534;8.500;2023-11-19T01:44:54;7.5;;;3.5;;
53674;SDS011;39574;50.534;8.500;2023-11-19T01:49:48;5.5;;;2.4;;
53674;SDS011;39574;50.534;8.500;2023-11-19T01:54:46;4.2;;;1.7;;
53674;SDS011;39574;50.534;8.500;2023-11-19T01:59:46;3.9;;;1.5;;
53674;SDS011;39574;50.534;8.500;2023-11-19T02:04:44;6.5;;;2.9;;
53674;SDS011;39574;50.534;8.500;2023-11-19T02:09:44;6.3;;;2.9;;
53674;SDS011;39574;50.534;8.500;2023-11-19T02:19:42;5.3;;;2.4;;
53674;SDS011;39574;50.534;8.500;2023-11-19T02:24:41;4.7;;;1.9;;
53674;SDS011;39574;50.534;8.500;2023-11-19T02:39:38;3.9;;;1.4;;
53674;SDS011;39574;50.534;8.500;2023-11-19T02:44:37;3.9;;;1.3;;
53674;SDS011;39574;50.534;8.500;2023-11-19T02:49:35;3.8;;;1.3;;
53674;SDS011;39574;50.534;8.500;2023-11-19T02:54:35;5.5;;;2.6;;
53674;SDS011;39574;50.534;8.500;2023-11-19T02:59:35;5.1;;;2.3;;
53674;SDS011;39574;50.534;8.500;2023-11-19T03:04:33;4.7;;;2.1;;
53674;SDS011;39574;50.534;8.500;2023-11-19T03:09:32;4.5;;;1.8;;
53674;SDS011;39574;50.534;8.500;2023-11-19T03:14:33;4.0;;;1.4;;
53674;SDS011;39574;50.534;8.500;2023-11-19T03:19:30;3.8;;;1.4;;
53674;SDS011;39574;50.534;8.500;2023-11-19T03:24:29;3.6;;;1.4;;
53674;SDS011;39574;50.534;8.500;2023-11-19T03:29:28;3.3;;;1.3;;
53674;SDS011;39574;50.534;8.500;2023-11-19T03:34:27;3.6;;;1.4;;
53674;SDS011;39574;50.534;8.500;2023-11-19T03:39:26;3.6;;;1.3;;
53674;SDS011;39574;50.534;8.500;2023-11-19T03:44:30;3.8;;;1.3;;
53674;SDS011;39574;50.534;8.500;2023-11-19T03:49:24;3.7;;;1.2;;
53674;SDS011;39574;50.534;8.500;2023-11-19T03:54:23;3.6;;;1.2;;
53674;SDS011;39574;50.534;8.500;2023-11-19T03:59:22;3.8;;;1.2;;
53674;SDS011;39574;50.534;8.500;2023-11-19T04:04:21;3.6;;;1.3;;
53674;SDS011;39574;50.534;8.500;2023-11-19T04:09:20;3.5;;;1.3;;
53674;SDS011;39574;50.534;8.500;2023-11-19T04:14:19;3.4;;;1.3;;
53674;SDS011;39574;50.534;8.500;2023-11-19T04:19:19;4.0;;;1.3;;
53674;SDS011;39574;50.534;8.500;2023-11-19T04:24:17;3.8;;;1.2;;
53674;SDS011;39574;50.534;8.500;2023-11-19T04:29:17;4.0;;;1.2;;
53674;SDS011;39574;50.534;8.500;2023-11-19T04:34:16;3.8;;;1.2;;
53674;SDS011;39574;50.534;8.500;2023-11-19T04:39:15;3.7;;;1.3;;
53674;SDS011;39574;50.534;8.500;2023-11-19T04:44:13;3.5;;;1.2;;
53674;SDS011;39574;50.534;8.500;2023-11-19T04:49:13;3.5;;;1.1;;
53674;SDS011;39574;50.534;8.500;2023-11-19T04:54:11;4.0;;;1.7;;
53674;SDS011;39574;50.534;8.500;2023-11-19T05:04:09;4.1;;;2.0;;
53674;SDS011;39574;50.534;8.500;2023-11-19T05:09:08;4.0;;;1.9;;
53674;SDS011;39574;50.534;8.500;2023-11-19T05:14:08;3.7;;;1.7;;
53674;SDS011;39574;50.534;8.500;2023-11-19T05:19:07;3.5;;;1.4;;
53674;SDS011;39574;50.534;8.500;2023-11-19T05:24:06;4.1;;;1.2;;
53674;SDS011;39574;50.534;8.500;2023-11-19T05:29:05;3.8;;;1.1;;
53674;SDS011;39574;50.534;8.500;2023-11-19T05:34:03;3.8;;;1.1;;
53674;SDS011;39574;50.534;8.500;2023-11-19T05:39:03;3.8;;;1.0;;
53674;SDS011;39574;50.534;8.500;2023-11-19T05:44:02;3.6;;;1.0;;
53674;SDS011;39574;50.534;8.500;2023-11-19T05:49:01;3.3;;;0.9;;
53674;SDS011;39574;50.534;8.500;2023-11-19T05:54:00;3.1;;;0.9;;
53674;SDS011;39574;50.534;8.500;2023-11-19T05:58:59;3.0;;;0.9;;
53674;SDS011;39574;50.534;8.500;2023-11-19T06:03:58;3.0;;;1.0;;
53674;SDS011;39574;50.534;8.500;2023-11-19T06:08:57;3.0;;;1.0;;
53674;SDS011;39574;50.534;8.500;2023-11-19T06:13:56;3.2;;;1.1;;
53674;SDS011;39574;50.534;8.500;2023-11-19T06:18:55;3.6;;;1.1;;
53674;SDS011;39574;50.534;8.500;2023-11-19T06:23:54;3.6;;;1.0;;
53674;SDS011;39574;50.534;8.500;2023-11-19T06:28:53;3.7;;;1.1;;
53674;SDS011;39574;50.534;8.500;2023-11-19T06:33:52;4.2;;;1.5;;
53674;SDS011;39574;50.534;8.500;2023-11-19T06:38:52;5.1;;;2.0;;
53674;SDS011;39574;50.534;8.500;2023-11-19T06:43:51;4.8;;;2.0;;
53674;SDS011;39574;50.534;8.500;2023-11-19T06:48:50;4.6;;;1.7;;
53674;SDS011;39574;50.534;8.500;2023-11-19T06:53:49;4.2;;;1.4;;
53674;SDS011;39574;50.534;8.500;2023-11-19T07:13:45;4.8;;;1.5;;
53674;SDS011;39574;50.534;8.500;2023-11-19T07:18:44;4.9;;;1.8;;
53674;SDS011;39574;50.534;8.500;2023-11-19T07:23:43;5.1;;;1.7;;
53674;SDS011;39574;50.534;8.500;2023-11-19T07:28:42;4.7;;;1.6;;
53674;SDS011;39574;50.534;8.500;2023-11-19T07:33:41;4.5;;;1.4;;
53674;SDS011;39574;50.534;8.500;2023-11-19T07:38:40;4.4;;;1.5;;
53674;SDS011;39574;50.534;8.500;2023-11-19T07:43:39;4.4;;;1.6;;
53674;SDS011;39574;50.534;8.500;2023-11-19T07:48:38;4.3;;;1.6;;
53674;SDS011;39574;50.534;8.500;2023-11-19T07:53:37;4.4;;;1.6;;
53674;SDS011;39574;50.534;8.500;2023-11-19T07:58:37;5.3;;;1.7;;
53674;SDS011;39574;50.534;8.500;2023-11-19T08:03:36;6.2;;;2.1;;
53674;SDS011;39574;50.534;8.500;2023-11-19T08:08:36;5.8;;;2.1;;
53674;SDS011;39574;50.534;8.500;2023-11-19T08:13:34;5.5;;;2.2;;
53674;SDS011;39574;50.534;8.500;2023-11-19T08:23:32;6.3;;;2.3;;
53674;SDS011;39574;50.534;8.500;2023-11-19T08:28:31;6.4;;;2.2;;
53674;SDS011;39574;50.534;8.500;2023-11-19T08:33:31;7.9;;;2.4;;
53674;SDS011;39574;50.534;8.500;2023-11-19T08:38:29;7.5;;;2.2;;
53674;SDS011;39574;50.534;8.500;2023-11-19T08:43:29;7.7;;;2.3;;
53674;SDS011;39574;50.534;8.500;2023-11-19T08:48:28;7.6;;;2.3;;
53674;SDS011;39574;50.534;8.500;2023-11-19T08:58:26;8.3;;;2.9;;
53674;SDS011;39574;50.534;8.500;2023-11-19T09:03:25;9.3;;;3.2;;
53674;SDS011;39574;50.534;8.500;2023-11-19T09:08:24;9.0;;;3.2;;
53674;SDS011;39574;50.534;8.500;2023-11-19T09:13:24;11.7;;;4.3;;
53674;SDS011;39574;50.534;8.500;2023-11-19T09:18:23;13.3;;;4.3;;
53674;SDS011;39574;50.534;8.500;2023-11-19T09:23:22;13.8;;;4.4;;
53674;SDS011;39574;50.534;8.500;2023-11-19T09:28:21;13.9;;;4.1;;
53674;SDS011;39574;50.534;8.500;2023-11-19T09:33:21;15.2;;;3.8;;
53674;SDS011;39574;50.534;8.500;2023-11-19T09:38:19;15.7;;;3.9;;
53674;SDS011;39574;50.534;8.500;2023-11-19T09:43:19;16.5;;;3.7;;
53674;SDS011;39574;50.534;8.500;2023-11-19T09:48:19;14.8;;;3.5;;
53674;SDS011;39574;50.534;8.500;2023-11-19T09:53:18;14.2;;;3.4;;
53674;SDS011;39574;50.534;8.500;2023-11-19T09:58:17;12.9;;;3.3;;
53674;SDS011;39574;50.534;8.500;2023-11-19T10:03:16;13.3;;;3.3;;
53674;SDS011;39574;50.534;8.500;2023-11-19T10:08:16;13.2;;;3.2;;
53674;SDS011;39574;50.534;8.500;2023-11-19T10:13:15;13.6;;;3.3;;
53674;SDS011;39574;50.534;8.500;2023-11-19T10:23:18;15.0;;;3.7;;
53674;SDS011;39574;50.534;8.500;2023-11-19T10:28:12;15.1;;;3.8;;
53674;SDS011;39574;50.534;8.500;2023-11-19T10:33:12;15.8;;;3.8;;
53674;SDS011;39574;50.534;8.500;2023-11-19T10:38:13;15.8;;;3.6;;
53674;SDS011;39574;50.534;8.500;2023-11-19T10:43:10;14.6;;;3.4;;
53674;SDS011;39574;50.534;8.500;2023-11-19T10:48:09;13.7;;;3.5;;
53674;SDS011;39574;50.534;8.500;2023-11-19T10:53:12;14.2;;;3.8;;
53674;SDS011;39574;50.534;8.500;2023-11-19T10:58:08;14.3;;;3.8;;
53674;SDS011;39574;50.534;8.500;2023-11-19T11:08:06;14.9;;;4.0;;
53674;SDS011;39574;50.534;8.500;2023-11-19T11:13:05;16.1;;;4.0;;
53674;SDS011;39574;50.534;8.500;2023-11-19T11:18:04;15.6;;;4.1;;
53674;SDS011;39574;50.534;8.500;2023-11-19T11:23:13;14.6;;;3.9;;
53674;SDS011;39574;50.534;8.500;2023-11-19T11:28:06;15.3;;;4.0;;
53674;SDS011;39574;50.534;8.500;2023-11-19T11:33:06;16.5;;;4.0;;
53674;SDS011;39574;50.534;8.500;2023-11-19T11:38:01;16.6;;;3.9;;
53674;SDS011;39574;50.534;8.500;2023-11-19T11:43:00;15.7;;;3.7;;
53674;SDS011;39574;50.534;8.500;2023-11-19T11:53:14;15.6;;;4.1;;
53674;SDS011;39574;50.534;8.500;2023-11-19T11:57:57;17.3;;;4.0;;
53674;SDS011;39574;50.534;8.500;2023-11-19T12:02:57;16.8;;;3.9;;
53674;SDS011;39574;50.534;8.500;2023-11-19T12:07:56;18.2;;;4.3;;
53674;SDS011;39574;50.534;8.500;2023-11-19T12:12:57;17.7;;;4.1;;
53674;SDS011;39574;50.534;8.500;2023-11-19T12:17:54;20.0;;;4.0;;
53674;SDS011;39574;50.534;8.500;2023-11-19T12:22:53;19.0;;;4.1;;
53674;SDS011;39574;50.534;8.500;2023-11-19T12:27:53;20.1;;;4.2;;
53674;SDS011;39574;50.534;8.500;2023-11-19T12:32:52;18.9;;;4.2;;
53674;SDS011;39574;50.534;8.500;2023-11-19T12:37:52;17.4;;;4.0;;
53674;SDS011;39574;50.534;8.500;2023-11-19T12:42:51;16.6;;;4.2;;
53674;SDS011;39574;50.534;8.500;2023-11-19T12:47:50;15.2;;;3.9;;
53674;SDS011;39574;50.534;8.500;2023-11-19T12:57:52;14.2;;;3.7;;
53674;SDS011;39574;50.534;8.500;2023-11-19T13:12:59;13.5;;;3.7;;
53674;SDS011;39574;50.534;8.500;2023-11-19T13:17:47;11.9;;;3.5;;
53674;SDS011;39574;50.534;8.500;2023-11-19T13:22:53;12.8;;;3.5;;
53674;SDS011;39574;50.534;8.500;2023-11-19T13:27:45;13.2;;;3.6;;
53674;SDS011;39574;50.534;8.500;2023-11-19T13:32:43;13.4;;;3.4;;
53674;SDS011;39574;50.534;8.500;2023-11-19T13:37:44;13.1;;;3.4;;
53674;SDS011;39574;50.534;8.500;2023-11-19T13:42:43;13.2;;;3.6;;
53674;SDS011;39574;50.534;8.500;2023-11-19T13:47:42;13.9;;;3.6;;
53674;SDS011;39574;50.534;8.500;2023-11-19T13:52:42;13.2;;;3.6;;
53674;SDS011;39574;50.534;8.500;2023-11-19T13:57:40;12.0;;;3.4;;
53674;SDS011;39574;50.534;8.500;2023-11-19T14:02:39;13.1;;;3.3;;
53674;SDS011;39574;50.534;8.500;2023-11-19T14:07:39;13.0;;;3.3;;
53674;SDS011;39574;50.534;8.500;2023-11-19T14:12:38;15.3;;;3.7;;
53674;SDS011;39574;50.534;8.500;2023-11-19T14:17:37;14.8;;;3.4;;
53674;SDS011;39574;50.534;8.500;2023-11-19T14:22:37;13.9;;;3.4;;
53674;SDS011;39574;50.534;8.500;2023-11-19T14:27:35;14.7;;;3.8;;
53674;SDS011;39574;50.534;8.500;2023-11-19T14:32:35;13.8;;;3.8;;
53674;SDS011;39574;50.534;8.500;2023-11-19T14:42:33;14.7;;;4.0;;
53674;SDS011;39574;50.534;8.500;2023-11-19T14:47:32;15.1;;;4.1;;
53674;SDS011;39574;50.534;8.500;2023-11-19T14:52:32;14.8;;;4.3;;
53674;SDS011;39574;50.534;8.500;2023-11-19T14:57:30;14.8;;;4.0;;
53674;SDS011;39574;50.534;8.500;2023-11-19T15:02:30;14.7;;;3.9;;
53674;SDS011;39574;50.534;8.500;2023-11-19T15:07:29;15.3;;;3.7;;
53674;SDS011;39574;50.534;8.500;2023-11-19T15:17:27;15.5;;;3.6;;
53674;SDS011;39574;50.534;8.500;2023-11-19T15:22:26;15.8;;;4.1;;
53674;SDS011;39574;50.534;8.500;2023-11-19T15:27:25;16.2;;;4.5;;
53674;SDS011;39574;50.534;8.500;2023-11-19T15:32:24;15.9;;;4.5;;
53674;SDS011;39574;50.534;8.500;2023-11-19T15:37:23;16.6;;;4.5;;
53674;SDS011;39574;50.534;8.500;2023-11-19T15:42:23;15.6;;;4.0;;
53674;SDS011;39574;50.534;8.500;2023-11-19T15:52:21;16.9;;;4.2;;
53674;SDS011;39574;50.534;8.500;2023-11-19T15:57:24;16.2;;;4.3;;
53674;SDS011;39574;50.534;8.500;2023-11-19T16:02:19;14.8;;;4.0;;
53674;SDS011;39574;50.534;8.500;2023-11-19T16:12:17;13.6;;;3.8;;
53674;SDS011;39574;50.534;8.500;2023-11-19T16:17:17;13.0;;;3.6;;
53674;SDS011;39574;50.534;8.500;2023-11-19T16:22:15;14.3;;;3.7;;
53674;SDS011;39574;50.534;8.500;2023-11-19T16:27:15;14.0;;;3.7;;
53674;SDS011;39574;50.534;8.500;2023-11-19T16:32:14;14.0;;;4.5;;
53674;SDS011;39574;50.534;8.500;2023-11-19T16:37:13;14.6;;;4.4;;
53674;SDS011;39574;50.534;8.500;2023-11-19T16:42:13;15.6;;;4.7;;
53674;SDS011;39574;50.534;8.500;2023-11-19T16:47:11;15.1;;;4.7;;
53674;SDS011;39574;50.534;8.500;2023-11-19T16:52:11;16.8;;;4.9;;
53674;SDS011;39574;50.534;8.500;2023-11-19T16:57:10;15.1;;;4.7;;
53674;SDS011;39574;50.534;8.500;2023-11-19T17:02:09;15.1;;;5.1;;
53674;SDS011;39574;50.534;8.500;2023-11-19T17:07:08;16.8;;;5.0;;
53674;SDS011;39574;50.534;8.500;2023-11-19T17:12:07;18.4;;;5.4;;
53674;SDS011;39574;50.534;8.500;2023-11-19T17:17:06;17.9;;;5.2;;
53674;SDS011;39574;50.534;8.500;2023-11-19T17:22:05;16.2;;;4.5;;
53674;SDS011;39574;50.534;8.500;2023-11-19T17:27:05;14.6;;;4.6;;
53674;SDS011;39574;50.534;8.500;2023-11-19T17:32:04;13.9;;;4.5;;
53674;SDS011;39574;50.534;8.500;2023-11-19T17:37:03;15.1;;;4.3;;
53674;SDS011;39574;50.534;8.500;2023-11-19T17:42:02;15.8;;;4.6;;
53674;SDS011;39574;50.534;8.500;2023-11-19T17:47:01;15.1;;;4.5;;
53674;SDS011;39574;50.534;8.500;2023-11-19T17:52:00;16.4;;;4.4;;
53674;SDS011;39574;50.534;8.500;2023-11-19T17:56:59;18.9;;;4.8;;
53674;SDS011;39574;50.534;8.500;2023-11-19T18:11:57;17.8;;;4.7;;
53674;SDS011;39574;50.534;8.500;2023-11-19T18:16:59;17.5;;;4.5;;
53674;SDS011;39574;50.534;8.500;2023-11-19T18:21:55;17.3;;;4.2;;
53674;SDS011;39574;50.534;8.500;2023-11-19T18:26:54;18.1;;;3.9;;
53674;SDS011;39574;50.534;8.500;2023-11-19T18:36:52;20.4;;;5.1;;
53674;SDS011;39574;50.534;8.500;2023-11-19T18:41:50;18.6;;;4.8;;
53674;SDS011;39574;50.534;8.500;2023-11-19T18:46:49;16.9;;;4.3;;
53674;SDS011;39574;50.534;8.500;2023-11-19T18:51:48;15.2;;;4.0;;
53674;SDS011;39574;50.534;8.500;2023-11-19T18:56:48;15.9;;;3.6;;
53674;SDS011;39574;50.534;8.500;2023-11-19T19:01:47;15.8;;;3.5;;
53674;SDS011;39574;50.534;8.500;2023-11-19T19:06:46;16.0;;;3.6;;
53674;SDS011;39574;50.534;8.500;2023-11-19T19:26:42;15.7;;;3.7;;
53674;SDS011;39574;50.534;8.500;2023-11-19T19:31:42;16.4;;;4.1;;
53674;SDS011;39574;50.534;8.500;2023-11-19T19:36:41;17.4;;;4.2;;
53674;SDS011;39574;50.534;8.500;2023-11-19T19:41:40;18.5;;;4.3;;
53674;SDS011;39574;50.534;8.500;2023-11-19T19:51:38;18.7;;;4.2;;
53674;SDS011;39574;50.534;8.500;2023-11-19T19:56:37;18.1;;;4.0;;
53674;SDS011;39574;50.534;8.500;2023-11-19T20:01:36;18.3;;;4.0;;
53674;SDS011;39574;50.534;8.500;2023-11-19T20:06:36;17.8;;;4.1;;
53674;SDS011;39574;50.534;8.500;2023-11-19T20:16:34;18.0;;;4.0;;
53674;SDS011;39574;50.534;8.500;2023-11-19T20:21:33;17.6;;;4.1;;
53674;SDS011;39574;50.534;8.500;2023-11-19T20:31:34;17.4;;;4.1;;
53674;SDS011;39574;50.534;8.500;2023-11-19T20:36:30;17.0;;;3.8;;
53674;SDS011;39574;50.534;8.500;2023-11-19T20:41:29;16.7;;;3.7;;
53674;SDS011;39574;50.534;8.500;2023-11-19T20:46:29;17.5;;;3.7;;
53674;SDS011;39574;50.534;8.500;2023-11-19T20:56:26;17.3;;;3.6;;
53674;SDS011;39574;50.534;8.500;2023-11-19T21:01:26;15.9;;;3.8;;
53674;SDS011;39574;50.534;8.500;2023-11-19T21:06:25;14.4;;;3.4;;
53674;SDS011;39574;50.534;8.500;2023-11-19T21:11:24;14.8;;;3.3;;
53674;SDS011;39574;50.534;8.500;2023-11-19T21:16:23;15.6;;;3.7;;
53674;SDS011;39574;50.534;8.500;2023-11-19T21:21:22;13.6;;;3.6;;
53674;SDS011;39574;50.534;8.500;2023-11-19T21:26:21;14.0;;;3.7;;
53674;SDS011;39574;50.534;8.500;2023-11-19T21:31:20;13.6;;;3.5;;
53674;SDS011;39574;50.534;8.500;2023-11-19T21:36:19;14.5;;;3.6;;
53674;SDS011;39574;50.534;8.500;2023-11-19T21:41:19;15.5;;;3.8;;
53674;SDS011;39574;50.534;8.500;2023-11-19T21:46:18;15.1;;;3.7;;
53674;SDS011;39574;50.534;8.500;2023-11-19T21:51:17;15.5;;;3.6;;
53674;SDS011;39574;50.534;8.500;2023-11-19T21:56:16;14.4;;;3.3;;
53674;SDS011;39574;50.534;8.500;2023-11-19T22:06:16;13.3;;;3.1;;
53674;SDS011;39574;50.534;8.500;2023-11-19T22:11:14;13.2;;;3.1;;
53674;SDS011;39574;50.534;8.500;2023-11-19T22:16:13;11.6;;;3.0;;
53674;SDS011;39574;50.534;8.500;2023-11-19T22:21:12;12.4;;;3.2;;
53674;SDS011;39574;50.534;8.500;2023-11-19T22:26:11;11.0;;;2.9;;
53674;SDS011;39574;50.534;8.500;2023-11-19T22:31:10;9.9;;;2.7;;
53674;SDS011;39574;50.534;8.500;2023-11-19T22:36:09;11.3;;;2.9;;
53674;SDS011;39574;50.534;8.500;2023-11-19T22:41:09;11.2;;;2.8;;
53674;SDS011;39574;50.534;8.500;2023-11-19T22:46:07;12.9;;;3.0;;
53674;SDS011;39574;50.534;8.500;2023-11-19T22:51:06;13.8;;;2.8;;
53674;SDS011;39574;50.534;8.500;2023-11-19T23:01:04;13.9;;;3.0;;
53674;SDS011;39574;50.534;8.500;2023-11-19T23:06:03;14.4;;;3.1;;
53674;SDS011;39574;50.534;8.500;2023-11-19T23:11:03;13.6;;;3.0;;
53674;SDS011;39574;50.534;8.500;2023-11-19T23:21:01;13.7;;;3.0;;
53674;SDS011;39574;50.534;8.500;2023-11-19T23:26:00;12.3;;;2.7;;
53674;SDS011;39574;50.534;8.500;2023-11-19T23:30:59;13.3;;;2.6;;
53674;SDS011;39574;50.534;8.500;2023-11-19T23:35:58;13.3;;;2.6;;
53674;SDS011;39574;50.534;8.500;2023-11-19T23:41:02;12.5;;;2.6;;
53674;SDS011;39574;50.534;8.500;2023-11-19T23:50:56;12.0;;;2.6;;
53674;SDS011;39574;50.534;8.500;2023-11-19T23:55:55;10.7;;;2.4;;
